sensor_id;sensor_type;location;lat;lon;timestamp;temperature;humidity
8527;DHT22;4301;48.362;8.478;2023-04-24T00:02:01;8.90;99.90
8527;DHT22;4301;48.362;8.478;2023-04-24T00:04:29;9.00;99.90
8527;DHT22;4301;48.362;8.478;2023-04-24T00:06:57;9.00;99.90
8527;DHT22;4301;48.362;8.478;2023-04-24T00:09:25;9.00;99.90
8527;DHT22;4301;48.362;8.478;2023-04-24T00:11:54;8.90;99.90
8527;DHT22;4301;48.362;8.478;2023-04-24T00:14:21;9.00;99.90
8527;DHT22;4301;48.362;8.478;2023-04-24T00:16:48;9.00;99.90
8527;DHT22;4301;48.362;8.478;2023-04-24T00:19:15;9.00;99.90
8527;DHT22;4301;48.362;8.478;2023-04-24T00:21:42;9.00;99.90
8527;DHT22;4301;48.362;8.478;2023-04-24T00:24:09;9.00;99.90
8527;DHT22;4301;48.362;8.478;2023-04-24T00:26:36;9.00;99.90
8527;DHT22;4301;48.362;8.478;2023-04-24T00:29:04;9.00;99.90
8527;DHT22;4301;48.362;8.478;2023-04-24T00:31:31;9.00;99.90
8527;DHT22;4301;48.362;8.478;2023-04-24T00:34:00;9.00;99.90
8527;DHT22;4301;48.362;8.478;2023-04-24T00:36:27;9.00;99.90
8527;DHT22;4301;48.362;8.478;2023-04-24T00:38:56;9.00;99.90
8527;DHT22;4301;48.362;8.478;2023-04-24T00:41:23;9.00;99.90
8527;DHT22;4301;48.362;8.478;2023-04-24T00:43:51;8.90;99.90
8527;DHT22;4301;48.362;8.478;2023-04-24T00:46:20;9.00;99.90
8527;DHT22;4301;48.362;8.478;2023-04-24T00:48:47;9.00;99.90
8527;DHT22;4301;48.362;8.478;2023-04-24T00:51:14;9.00;99.90
8527;DHT22;4301;48.362;8.478;2023-04-24T00:53:41;9.00;99.90
8527;DHT22;4301;48.362;8.478;2023-04-24T00:56:08;9.00;99.90
8527;DHT22;4301;48.362;8.478;2023-04-24T00:58:36;8.90;99.90
8527;DHT22;4301;48.362;8.478;2023-04-24T01:01:03;9.00;99.90
8527;DHT22;4301;48.362;8.478;2023-04-24T01:03:34;9.00;99.90
8527;DHT22;4301;48.362;8.478;2023-04-24T01:06:03;9.00;99.90
8527;DHT22;4301;48.362;8.478;2023-04-24T01:08:30;9.00;99.90
8527;DHT22;4301;48.362;8.478;2023-04-24T01:10:58;9.00;99.90
8527;DHT22;4301;48.362;8.478;2023-04-24T01:13:25;8.90;99.90
8527;DHT22;4301;48.362;8.478;2023-04-24T01:15:52;8.90;99.90
8527;DHT22;4301;48.362;8.478;2023-04-24T01:18:19;8.90;99.90
8527;DHT22;4301;48.362;8.478;2023-04-24T01:20:51;8.90;99.90
8527;DHT22;4301;48.362;8.478;2023-04-24T01:23:21;8.90;99.90
8527;DHT22;4301;48.362;8.478;2023-04-24T01:25:48;8.80;99.90
8527;DHT22;4301;48.362;8.478;2023-04-24T01:28:16;8.80;99.90
8527;DHT22;4301;48.362;8.478;2023-04-24T01:30:44;8.70;99.90
8527;DHT22;4301;48.362;8.478;2023-04-24T01:33:11;8.70;99.90
8527;DHT22;4301;48.362;8.478;2023-04-24T01:35:38;8.70;99.90
8527;DHT22;4301;48.362;8.478;2023-04-24T01:38:05;8.70;99.90
8527;DHT22;4301;48.362;8.478;2023-04-24T01:40:34;8.70;99.90
8527;DHT22;4301;48.362;8.478;2023-04-24T01:43:01;8.60;99.90
8527;DHT22;4301;48.362;8.478;2023-04-24T01:45:29;8.60;99.90
8527;DHT22;4301;48.362;8.478;2023-04-24T01:47:56;8.60;99.90
8527;DHT22;4301;48.362;8.478;2023-04-24T01:50:23;8.60;99.90
8527;DHT22;4301;48.362;8.478;2023-04-24T01:52:50;8.60;99.90
8527;DHT22;4301;48.362;8.478;2023-04-24T01:55:17;8.60;99.90
8527;DHT22;4301;48.362;8.478;2023-04-24T01:57:46;8.60;99.90
8527;DHT22;4301;48.362;8.478;2023-04-24T02:00:13;8.60;99.90
8527;DHT22;4301;48.362;8.478;2023-04-24T02:02:40;8.60;99.90
8527;DHT22;4301;48.362;8.478;2023-04-24T02:05:08;8.50;99.90
8527;DHT22;4301;48.362;8.478;2023-04-24T02:07:36;8.50;99.90
8527;DHT22;4301;48.362;8.478;2023-04-24T02:10:04;8.60;99.90
8527;DHT22;4301;48.362;8.478;2023-04-24T02:12:31;8.50;99.90
8527;DHT22;4301;48.362;8.478;2023-04-24T02:15:00;8.50;99.90
8527;DHT22;4301;48.362;8.478;2023-04-24T02:17:27;8.50;99.90
8527;DHT22;4301;48.362;8.478;2023-04-24T02:19:54;8.50;99.90
8527;DHT22;4301;48.362;8.478;2023-04-24T02:22:20;8.40;99.90
8527;DHT22;4301;48.362;8.478;2023-04-24T02:24:47;8.40;99.90
8527;DHT22;4301;48.362;8.478;2023-04-24T02:27:14;8.40;99.90
8527;DHT22;4301;48.362;8.478;2023-04-24T02:29:41;8.30;99.90
8527;DHT22;4301;48.362;8.478;2023-04-24T02:32:09;8.40;99.90
8527;DHT22;4301;48.362;8.478;2023-04-24T02:34:37;8.50;99.90
8527;DHT22;4301;48.362;8.478;2023-04-24T02:37:04;8.30;99.90
8527;DHT22;4301;48.362;8.478;2023-04-24T02:39:31;8.30;99.90
8527;DHT22;4301;48.362;8.478;2023-04-24T02:41:58;8.30;99.90
8527;DHT22;4301;48.362;8.478;2023-04-24T02:44:25;8.30;99.90
8527;DHT22;4301;48.362;8.478;2023-04-24T02:46:52;8.30;99.90
8527;DHT22;4301;48.362;8.478;2023-04-24T02:49:20;8.30;99.90
8527;DHT22;4301;48.362;8.478;2023-04-24T02:51:47;8.30;99.90
8527;DHT22;4301;48.362;8.478;2023-04-24T02:54:14;8.20;99.90
8527;DHT22;4301;48.362;8.478;2023-04-24T02:56:41;8.20;99.90
8527;DHT22;4301;48.362;8.478;2023-04-24T02:59:08;8.20;99.90
8527;DHT22;4301;48.362;8.478;2023-04-24T03:01:36;8.20;99.90
8527;DHT22;4301;48.362;8.478;2023-04-24T03:04:03;8.30;99.90
8527;DHT22;4301;48.362;8.478;2023-04-24T03:06:31;8.20;99.90
8527;DHT22;4301;48.362;8.478;2023-04-24T03:09:01;8.30;99.90
8527;DHT22;4301;48.362;8.478;2023-04-24T03:11:28;8.30;99.90
8527;DHT22;4301;48.362;8.478;2023-04-24T03:13:55;8.20;99.90
8527;DHT22;4301;48.362;8.478;2023-04-24T03:16:22;8.20;99.90
8527;DHT22;4301;48.362;8.478;2023-04-24T03:18:49;8.20;99.90
8527;DHT22;4301;48.362;8.478;2023-04-24T03:21:16;8.30;99.90
8527;DHT22;4301;48.362;8.478;2023-04-24T03:23:45;8.20;99.90
8527;DHT22;4301;48.362;8.478;2023-04-24T03:26:11;8.20;99.90
8527;DHT22;4301;48.362;8.478;2023-04-24T03:28:38;8.20;99.90
8527;DHT22;4301;48.362;8.478;2023-04-24T03:31:05;8.20;99.90
8527;DHT22;4301;48.362;8.478;2023-04-24T03:33:32;8.20;99.90
8527;DHT22;4301;48.362;8.478;2023-04-24T03:35:59;8.20;99.90
8527;DHT22;4301;48.362;8.478;2023-04-24T03:38:26;8.20;99.90
8527;DHT22;4301;48.362;8.478;2023-04-24T03:40:54;8.20;99.90
8527;DHT22;4301;48.362;8.478;2023-04-24T03:43:21;8.10;99.90
8527;DHT22;4301;48.362;8.478;2023-04-24T03:45:48;8.10;99.90
8527;DHT22;4301;48.362;8.478;2023-04-24T03:48:15;8.10;99.90
8527;DHT22;4301;48.362;8.478;2023-04-24T03:50:42;8.20;99.90
8527;DHT22;4301;48.362;8.478;2023-04-24T03:53:09;8.20;99.90
8527;DHT22;4301;48.362;8.478;2023-04-24T03:55:36;8.10;99.90
8527;DHT22;4301;48.362;8.478;2023-04-24T03:58:05;8.10;99.90
8527;DHT22;4301;48.362;8.478;2023-04-24T04:00:32;8.10;99.90
8527;DHT22;4301;48.362;8.478;2023-04-24T04:03:00;7.80;99.90
8527;DHT22;4301;48.362;8.478;2023-04-24T04:05:27;7.80;99.90
8527;DHT22;4301;48.362;8.478;2023-04-24T04:07:53;7.60;99.90
8527;DHT22;4301;48.362;8.478;2023-04-24T04:10:21;7.50;99.90
8527;DHT22;4301;48.362;8.478;2023-04-24T04:12:48;7.40;99.90
8527;DHT22;4301;48.362;8.478;2023-04-24T04:15:16;7.30;99.90
8527;DHT22;4301;48.362;8.478;2023-04-24T04:17:43;7.30;99.90
8527;DHT22;4301;48.362;8.478;2023-04-24T04:20:11;7.20;99.90
8527;DHT22;4301;48.362;8.478;2023-04-24T04:22:39;7.20;99.90
8527;DHT22;4301;48.362;8.478;2023-04-24T04:25:06;7.10;99.90
8527;DHT22;4301;48.362;8.478;2023-04-24T04:27:34;7.10;99.90
8527;DHT22;4301;48.362;8.478;2023-04-24T04:30:02;7.10;99.90
8527;DHT22;4301;48.362;8.478;2023-04-24T04:32:31;7.10;99.90
8527;DHT22;4301;48.362;8.478;2023-04-24T04:34:59;7.00;99.90
8527;DHT22;4301;48.362;8.478;2023-04-24T04:37:28;7.00;99.90
8527;DHT22;4301;48.362;8.478;2023-04-24T04:39:55;7.00;99.90
8527;DHT22;4301;48.362;8.478;2023-04-24T04:42:23;6.90;99.90
8527;DHT22;4301;48.362;8.478;2023-04-24T04:44:50;7.00;99.90
8527;DHT22;4301;48.362;8.478;2023-04-24T04:47:17;7.00;99.90
8527;DHT22;4301;48.362;8.478;2023-04-24T04:49:46;7.00;99.90
8527;DHT22;4301;48.362;8.478;2023-04-24T04:52:13;6.90;99.90
8527;DHT22;4301;48.362;8.478;2023-04-24T04:54:42;6.90;99.90
8527;DHT22;4301;48.362;8.478;2023-04-24T04:57:09;6.90;99.90
8527;DHT22;4301;48.362;8.478;2023-04-24T04:59:37;6.90;99.90
8527;DHT22;4301;48.362;8.478;2023-04-24T05:02:04;6.90;99.90
8527;DHT22;4301;48.362;8.478;2023-04-24T05:04:31;6.90;99.90
8527;DHT22;4301;48.362;8.478;2023-04-24T05:06:59;6.90;99.90
8527;DHT22;4301;48.362;8.478;2023-04-24T05:09:26;6.90;99.90
8527;DHT22;4301;48.362;8.478;2023-04-24T05:11:55;6.90;99.90
8527;DHT22;4301;48.362;8.478;2023-04-24T05:14:22;6.90;99.90
8527;DHT22;4301;48.362;8.478;2023-04-24T05:16:48;6.90;99.90
8527;DHT22;4301;48.362;8.478;2023-04-24T05:19:15;6.90;99.90
8527;DHT22;4301;48.362;8.478;2023-04-24T05:21:43;6.90;99.90
8527;DHT22;4301;48.362;8.478;2023-04-24T05:24:11;7.00;99.90
8527;DHT22;4301;48.362;8.478;2023-04-24T05:26:38;7.00;99.90
8527;DHT22;4301;48.362;8.478;2023-04-24T05:29:05;7.00;99.90
8527;DHT22;4301;48.362;8.478;2023-04-24T05:31:32;7.00;99.90
8527;DHT22;4301;48.362;8.478;2023-04-24T05:33:59;7.10;99.90
8527;DHT22;4301;48.362;8.478;2023-04-24T05:36:26;7.10;99.90
8527;DHT22;4301;48.362;8.478;2023-04-24T05:38:54;7.20;99.90
8527;DHT22;4301;48.362;8.478;2023-04-24T05:41:23;7.30;99.90
8527;DHT22;4301;48.362;8.478;2023-04-24T05:43:50;7.40;99.90
8527;DHT22;4301;48.362;8.478;2023-04-24T05:46:17;7.50;99.90
8527;DHT22;4301;48.362;8.478;2023-04-24T05:48:44;7.60;99.90
8527;DHT22;4301;48.362;8.478;2023-04-24T05:51:11;7.80;99.90
8527;DHT22;4301;48.362;8.478;2023-04-24T05:53:38;7.90;56.30
8527;DHT22;4301;48.362;8.478;2023-04-24T05:56:05;7.90;99.80
8527;DHT22;4301;48.362;8.478;2023-04-24T05:58:33;8.10;93.70
8527;DHT22;4301;48.362;8.478;2023-04-24T06:01:00;8.20;61.90
8527;DHT22;4301;48.362;8.478;2023-04-24T06:03:28;8.30;91.30
8527;DHT22;4301;48.362;8.478;2023-04-24T06:05:55;8.20;1.00
8527;DHT22;4301;48.362;8.478;2023-04-24T06:08:21;8.30;14.20
8527;DHT22;4301;48.362;8.478;2023-04-24T06:10:48;8.30;79.00
8527;DHT22;4301;48.362;8.478;2023-04-24T06:13:15;8.30;90.80
8527;DHT22;4301;48.362;8.478;2023-04-24T06:15:44;8.30;52.70
8527;DHT22;4301;48.362;8.478;2023-04-24T06:18:10;8.30;51.50
8527;DHT22;4301;48.362;8.478;2023-04-24T06:20:38;8.40;82.30
8527;DHT22;4301;48.362;8.478;2023-04-24T06:23:05;8.50;28.10
8527;DHT22;4301;48.362;8.478;2023-04-24T06:25:33;8.40;2.90
8527;DHT22;4301;48.362;8.478;2023-04-24T06:28:00;8.40;1.00
8527;DHT22;4301;48.362;8.478;2023-04-24T06:30:27;8.40;52.10
8527;DHT22;4301;48.362;8.478;2023-04-24T06:32:55;8.50;28.50
8527;DHT22;4301;48.362;8.478;2023-04-24T06:35:22;8.50;5.50
8527;DHT22;4301;48.362;8.478;2023-04-24T06:37:50;8.50;51.60
8527;DHT22;4301;48.362;8.478;2023-04-24T06:40:17;8.40;17.90
8527;DHT22;4301;48.362;8.478;2023-04-24T06:42:45;8.20;44.40
8527;DHT22;4301;48.362;8.478;2023-04-24T06:45:12;8.20;95.90
8527;DHT22;4301;48.362;8.478;2023-04-24T06:47:39;8.00;96.50
8527;DHT22;4301;48.362;8.478;2023-04-24T06:50:08;7.80;73.10
8527;DHT22;4301;48.362;8.478;2023-04-24T06:52:35;7.80;99.90
8527;DHT22;4301;48.362;8.478;2023-04-24T06:55:02;7.80;93.90
8527;DHT22;4301;48.362;8.478;2023-04-24T06:57:29;7.70;1.70
8527;DHT22;4301;48.362;8.478;2023-04-24T06:59:56;7.60;45.70
8527;DHT22;4301;48.362;8.478;2023-04-24T07:02:25;7.50;71.90
8527;DHT22;4301;48.362;8.478;2023-04-24T07:04:52;7.40;99.90
8527;DHT22;4301;48.362;8.478;2023-04-24T07:07:21;7.30;55.80
8527;DHT22;4301;48.362;8.478;2023-04-24T07:09:50;7.30;99.90
8527;DHT22;4301;48.362;8.478;2023-04-24T07:12:19;7.50;83.30
8527;DHT22;4301;48.362;8.478;2023-04-24T07:14:47;7.70;76.90
8527;DHT22;4301;48.362;8.478;2023-04-24T07:17:14;7.80;27.60
8527;DHT22;4301;48.362;8.478;2023-04-24T07:19:41;8.10;25.20
8527;DHT22;4301;48.362;8.478;2023-04-24T07:22:08;8.30;38.60
8527;DHT22;4301;48.362;8.478;2023-04-24T07:24:38;8.20;1.00
8527;DHT22;4301;48.362;8.478;2023-04-24T07:27:05;8.10;1.00
8527;DHT22;4301;48.362;8.478;2023-04-24T07:29:32;7.90;1.00
8527;DHT22;4301;48.362;8.478;2023-04-24T07:31:59;7.80;1.00
8527;DHT22;4301;48.362;8.478;2023-04-24T07:34:26;7.90;1.00
8527;DHT22;4301;48.362;8.478;2023-04-24T07:36:53;8.10;1.00
8527;DHT22;4301;48.362;8.478;2023-04-24T07:39:20;8.10;1.00
8527;DHT22;4301;48.362;8.478;2023-04-24T07:41:48;8.20;1.00
8527;DHT22;4301;48.362;8.478;2023-04-24T07:44:15;8.20;1.00
8527;DHT22;4301;48.362;8.478;2023-04-24T07:46:42;8.20;1.00
8527;DHT22;4301;48.362;8.478;2023-04-24T07:49:09;8.50;1.00
8527;DHT22;4301;48.362;8.478;2023-04-24T07:51:36;8.70;1.00
8527;DHT22;4301;48.362;8.478;2023-04-24T07:54:04;8.80;1.00
8527;DHT22;4301;48.362;8.478;2023-04-24T07:56:32;9.00;1.00
8527;DHT22;4301;48.362;8.478;2023-04-24T07:59:01;9.50;1.00
8527;DHT22;4301;48.362;8.478;2023-04-24T08:01:28;9.80;99.90
8527;DHT22;4301;48.362;8.478;2023-04-24T08:03:55;9.50;99.90
8527;DHT22;4301;48.362;8.478;2023-04-24T08:06:22;9.30;99.90
8527;DHT22;4301;48.362;8.478;2023-04-24T08:08:49;9.40;99.90
8527;DHT22;4301;48.362;8.478;2023-04-24T08:11:17;9.20;1.00
8527;DHT22;4301;48.362;8.478;2023-04-24T08:13:44;9.20;99.90
8527;DHT22;4301;48.362;8.478;2023-04-24T08:16:12;9.30;83.40
8527;DHT22;4301;48.362;8.478;2023-04-24T08:18:39;9.30;1.00
8527;DHT22;4301;48.362;8.478;2023-04-24T08:21:06;9.70;99.90
8527;DHT22;4301;48.362;8.478;2023-04-24T08:23:33;9.70;99.90
8527;DHT22;4301;48.362;8.478;2023-04-24T08:26:00;9.50;1.00
8527;DHT22;4301;48.362;8.478;2023-04-24T08:28:28;9.10;1.00
8527;DHT22;4301;48.362;8.478;2023-04-24T08:30:55;8.90;99.90
8527;DHT22;4301;48.362;8.478;2023-04-24T08:33:24;8.60;1.00
8527;DHT22;4301;48.362;8.478;2023-04-24T08:35:52;8.40;1.00
8527;DHT22;4301;48.362;8.478;2023-04-24T08:38:19;8.10;1.00
8527;DHT22;4301;48.362;8.478;2023-04-24T08:40:46;7.90;5.40
8527;DHT22;4301;48.362;8.478;2023-04-24T08:43:15;7.70;25.00
8527;DHT22;4301;48.362;8.478;2023-04-24T08:45:42;7.50;92.80
8527;DHT22;4301;48.362;8.478;2023-04-24T08:48:09;7.50;91.60
8527;DHT22;4301;48.362;8.478;2023-04-24T08:50:38;7.40;69.10
8527;DHT22;4301;48.362;8.478;2023-04-24T08:53:08;7.40;99.90
8527;DHT22;4301;48.362;8.478;2023-04-24T08:55:36;7.50;60.60
8527;DHT22;4301;48.362;8.478;2023-04-24T08:58:03;7.60;23.60
8527;DHT22;4301;48.362;8.478;2023-04-24T09:00:31;7.60;49.60
8527;DHT22;4301;48.362;8.478;2023-04-24T09:03:00;7.90;60.40
8527;DHT22;4301;48.362;8.478;2023-04-24T09:05:29;8.40;1.00
8527;DHT22;4301;48.362;8.478;2023-04-24T09:07:59;8.20;1.00
8527;DHT22;4301;48.362;8.478;2023-04-24T09:10:28;8.30;1.00
8527;DHT22;4301;48.362;8.478;2023-04-24T09:12:56;8.80;1.00
8527;DHT22;4301;48.362;8.478;2023-04-24T09:15:27;9.50;1.00
8527;DHT22;4301;48.362;8.478;2023-04-24T09:17:55;9.50;1.00
8527;DHT22;4301;48.362;8.478;2023-04-24T09:20:22;9.50;1.00
8527;DHT22;4301;48.362;8.478;2023-04-24T09:22:54;9.90;99.90
8527;DHT22;4301;48.362;8.478;2023-04-24T09:25:24;10.70;90.70
8527;DHT22;4301;48.362;8.478;2023-04-24T09:27:54;11.00;1.00
8527;DHT22;4301;48.362;8.478;2023-04-24T09:30:21;10.10;1.00
8527;DHT22;4301;48.362;8.478;2023-04-24T09:32:49;9.50;58.50
8527;DHT22;4301;48.362;8.478;2023-04-24T09:35:16;9.30;1.00
8527;DHT22;4301;48.362;8.478;2023-04-24T09:37:44;9.30;1.00
8527;DHT22;4301;48.362;8.478;2023-04-24T09:40:14;9.60;1.00
8527;DHT22;4301;48.362;8.478;2023-04-24T09:42:45;10.40;1.00
8527;DHT22;4301;48.362;8.478;2023-04-24T09:45:12;11.50;99.90
8527;DHT22;4301;48.362;8.478;2023-04-24T09:47:40;12.30;1.00
8527;DHT22;4301;48.362;8.478;2023-04-24T09:50:14;12.80;1.00
8527;DHT22;4301;48.362;8.478;2023-04-24T09:52:43;14.00;99.90
8527;DHT22;4301;48.362;8.478;2023-04-24T09:55:18;14.60;1.00
8527;DHT22;4301;48.362;8.478;2023-04-24T09:57:51;13.50;1.00
8527;DHT22;4301;48.362;8.478;2023-04-24T10:00:21;12.30;1.00
8527;DHT22;4301;48.362;8.478;2023-04-24T10:02:54;11.40;99.90
8527;DHT22;4301;48.362;8.478;2023-04-24T10:05:24;10.80;1.00
8527;DHT22;4301;48.362;8.478;2023-04-24T10:07:51;10.40;1.00
8527;DHT22;4301;48.362;8.478;2023-04-24T10:10:22;10.20;1.00
8527;DHT22;4301;48.362;8.478;2023-04-24T10:12:51;9.90;99.90
8527;DHT22;4301;48.362;8.478;2023-04-24T10:15:19;9.60;1.00
8527;DHT22;4301;48.362;8.478;2023-04-24T10:17:48;9.70;99.90
8527;DHT22;4301;48.362;8.478;2023-04-24T10:20:22;9.90;1.00
8527;DHT22;4301;48.362;8.478;2023-04-24T10:22:50;9.90;1.00
8527;DHT22;4301;48.362;8.478;2023-04-24T10:25:18;9.70;1.00
8527;DHT22;4301;48.362;8.478;2023-04-24T10:27:46;9.70;99.90
8527;DHT22;4301;48.362;8.478;2023-04-24T10:30:16;9.70;99.90
8527;DHT22;4301;48.362;8.478;2023-04-24T10:32:43;9.90;99.90
8527;DHT22;4301;48.362;8.478;2023-04-24T10:35:12;9.90;1.00
8527;DHT22;4301;48.362;8.478;2023-04-24T10:37:41;10.00;99.90
8527;DHT22;4301;48.362;8.478;2023-04-24T10:40:10;10.30;98.60
8527;DHT22;4301;48.362;8.478;2023-04-24T10:42:40;10.20;99.90
8527;DHT22;4301;48.362;8.478;2023-04-24T10:45:17;10.00;99.90
8527;DHT22;4301;48.362;8.478;2023-04-24T10:47:52;10.20;1.00
8527;DHT22;4301;48.362;8.478;2023-04-24T10:50:19;10.10;1.00
8527;DHT22;4301;48.362;8.478;2023-04-24T10:52:46;10.70;99.90
8527;DHT22;4301;48.362;8.478;2023-04-24T10:55:14;10.50;1.00
8527;DHT22;4301;48.362;8.478;2023-04-24T10:58:01;10.30;99.90
8527;DHT22;4301;48.362;8.478;2023-04-24T11:00:30;10.30;99.90
8527;DHT22;4301;48.362;8.478;2023-04-24T11:02:57;10.20;1.00
8527;DHT22;4301;48.362;8.478;2023-04-24T11:05:51;10.10;77.10
8527;DHT22;4301;48.362;8.478;2023-04-24T11:08:32;10.00;99.90
8527;DHT22;4301;48.362;8.478;2023-04-24T11:11:07;9.90;1.00
8527;DHT22;4301;48.362;8.478;2023-04-24T11:14:04;9.80;99.90
8527;DHT22;4301;48.362;8.478;2023-04-24T11:16:43;9.70;99.90
8527;DHT22;4301;48.362;8.478;2023-04-24T11:19:18;9.30;99.90
8527;DHT22;4301;48.362;8.478;2023-04-24T11:21:47;9.80;1.00
8527;DHT22;4301;48.362;8.478;2023-04-24T11:24:29;9.80;99.90
8527;DHT22;4301;48.362;8.478;2023-04-24T11:26:57;9.70;99.90
8527;DHT22;4301;48.362;8.478;2023-04-24T11:29:42;9.40;99.90
8527;DHT22;4301;48.362;8.478;2023-04-24T11:32:25;9.10;1.00
8527;DHT22;4301;48.362;8.478;2023-04-24T11:34:54;9.10;1.00
8527;DHT22;4301;48.362;8.478;2023-04-24T11:37:22;8.90;99.90
8527;DHT22;4301;48.362;8.478;2023-04-24T11:39:53;8.90;99.90
8527;DHT22;4301;48.362;8.478;2023-04-24T11:42:21;8.70;99.90
8527;DHT22;4301;48.362;8.478;2023-04-24T11:44:50;8.80;1.00
8527;DHT22;4301;48.362;8.478;2023-04-24T11:47:18;8.80;1.00
8527;DHT22;4301;48.362;8.478;2023-04-24T11:49:49;8.70;1.00
8527;DHT22;4301;48.362;8.478;2023-04-24T11:52:16;8.70;1.00
8527;DHT22;4301;48.362;8.478;2023-04-24T11:54:48;8.60;99.90
8527;DHT22;4301;48.362;8.478;2023-04-24T11:57:16;8.60;99.90
8527;DHT22;4301;48.362;8.478;2023-04-24T11:59:43;9.00;1.00
8527;DHT22;4301;48.362;8.478;2023-04-24T12:02:20;9.90;99.90
8527;DHT22;4301;48.362;8.478;2023-04-24T12:04:48;11.20;1.00
8527;DHT22;4301;48.362;8.478;2023-04-24T12:07:17;12.20;99.90
8527;DHT22;4301;48.362;8.478;2023-04-24T12:09:45;12.60;1.00
8527;DHT22;4301;48.362;8.478;2023-04-24T12:12:13;12.50;1.00
8527;DHT22;4301;48.362;8.478;2023-04-24T12:14:50;12.00;1.00
8527;DHT22;4301;48.362;8.478;2023-04-24T12:17:24;11.80;1.00
8527;DHT22;4301;48.362;8.478;2023-04-24T12:19:56;13.30;1.00
8527;DHT22;4301;48.362;8.478;2023-04-24T12:22:23;14.30;1.00
8527;DHT22;4301;48.362;8.478;2023-04-24T12:25:01;14.70;99.90
8527;DHT22;4301;48.362;8.478;2023-04-24T12:27:31;14.60;99.90
8527;DHT22;4301;48.362;8.478;2023-04-24T12:30:04;14.80;99.90
8527;DHT22;4301;48.362;8.478;2023-04-24T12:32:31;15.10;99.90
8527;DHT22;4301;48.362;8.478;2023-04-24T12:35:00;16.20;99.90
8527;DHT22;4301;48.362;8.478;2023-04-24T12:37:33;15.70;99.90
8527;DHT22;4301;48.362;8.478;2023-04-24T12:40:03;15.80;99.90
8527;DHT22;4301;48.362;8.478;2023-04-24T12:42:32;16.00;99.90
8527;DHT22;4301;48.362;8.478;2023-04-24T12:45:02;16.30;99.90
8527;DHT22;4301;48.362;8.478;2023-04-24T12:47:30;16.80;99.90
8527;DHT22;4301;48.362;8.478;2023-04-24T12:49:57;17.00;99.90
8527;DHT22;4301;48.362;8.478;2023-04-24T12:52:27;17.10;99.90
8527;DHT22;4301;48.362;8.478;2023-04-24T12:54:56;16.50;99.90
8527;DHT22;4301;48.362;8.478;2023-04-24T12:57:24;16.50;99.90
8527;DHT22;4301;48.362;8.478;2023-04-24T12:59:53;17.00;99.90
8527;DHT22;4301;48.362;8.478;2023-04-24T13:02:21;15.00;99.90
8527;DHT22;4301;48.362;8.478;2023-04-24T13:04:48;15.00;99.90
8527;DHT22;4301;48.362;8.478;2023-04-24T13:07:15;15.10;99.90
8527;DHT22;4301;48.362;8.478;2023-04-24T13:09:44;15.40;99.90
8527;DHT22;4301;48.362;8.478;2023-04-24T13:12:11;15.60;99.90
8527;DHT22;4301;48.362;8.478;2023-04-24T13:14:38;15.80;99.90
8527;DHT22;4301;48.362;8.478;2023-04-24T13:17:06;15.50;99.90
8527;DHT22;4301;48.362;8.478;2023-04-24T13:19:36;15.10;99.90
8527;DHT22;4301;48.362;8.478;2023-04-24T13:22:04;14.60;99.90
8527;DHT22;4301;48.362;8.478;2023-04-24T13:24:31;14.30;99.90
8527;DHT22;4301;48.362;8.478;2023-04-24T13:26:59;13.70;99.90
8527;DHT22;4301;48.362;8.478;2023-04-24T13:29:28;13.40;99.90
8527;DHT22;4301;48.362;8.478;2023-04-24T13:31:55;13.60;99.90
8527;DHT22;4301;48.362;8.478;2023-04-24T13:34:22;13.40;99.90
8527;DHT22;4301;48.362;8.478;2023-04-24T13:36:50;13.00;99.90
8527;DHT22;4301;48.362;8.478;2023-04-24T13:39:17;13.10;99.90
8527;DHT22;4301;48.362;8.478;2023-04-24T13:41:44;13.30;99.90
8527;DHT22;4301;48.362;8.478;2023-04-24T13:44:15;13.40;99.90
8527;DHT22;4301;48.362;8.478;2023-04-24T13:46:42;13.60;99.90
8527;DHT22;4301;48.362;8.478;2023-04-24T13:49:10;13.50;99.90
8527;DHT22;4301;48.362;8.478;2023-04-24T13:51:38;13.30;99.90
8527;DHT22;4301;48.362;8.478;2023-04-24T13:54:05;13.00;99.90
8527;DHT22;4301;48.362;8.478;2023-04-24T13:56:32;12.40;99.90
8527;DHT22;4301;48.362;8.478;2023-04-24T13:58:59;12.20;99.90
8527;DHT22;4301;48.362;8.478;2023-04-24T14:01:28;11.60;99.90
8527;DHT22;4301;48.362;8.478;2023-04-24T14:03:55;11.20;99.90
8527;DHT22;4301;48.362;8.478;2023-04-24T14:06:23;11.40;99.90
8527;DHT22;4301;48.362;8.478;2023-04-24T14:08:50;11.80;99.90
8527;DHT22;4301;48.362;8.478;2023-04-24T14:11:17;12.00;99.90
8527;DHT22;4301;48.362;8.478;2023-04-24T14:13:45;12.30;99.90
8527;DHT22;4301;48.362;8.478;2023-04-24T14:16:12;12.40;99.90
8527;DHT22;4301;48.362;8.478;2023-04-24T14:18:41;12.20;99.90
8527;DHT22;4301;48.362;8.478;2023-04-24T14:21:08;11.80;99.90
8527;DHT22;4301;48.362;8.478;2023-04-24T14:23:35;12.10;99.90
8527;DHT22;4301;48.362;8.478;2023-04-24T14:26:03;11.70;99.90
8527;DHT22;4301;48.362;8.478;2023-04-24T14:28:30;11.50;99.90
8527;DHT22;4301;48.362;8.478;2023-04-24T14:30:57;11.40;99.90
8527;DHT22;4301;48.362;8.478;2023-04-24T14:33:24;11.20;99.90
8527;DHT22;4301;48.362;8.478;2023-04-24T14:35:52;11.30;99.90
8527;DHT22;4301;48.362;8.478;2023-04-24T14:38:19;11.40;99.90
8527;DHT22;4301;48.362;8.478;2023-04-24T14:40:46;11.50;99.90
8527;DHT22;4301;48.362;8.478;2023-04-24T14:43:13;11.20;99.90
8527;DHT22;4301;48.362;8.478;2023-04-24T14:45:40;11.10;1.00
8527;DHT22;4301;48.362;8.478;2023-04-24T14:48:07;11.40;1.00
8527;DHT22;4301;48.362;8.478;2023-04-24T14:50:35;11.50;1.00
8527;DHT22;4301;48.362;8.478;2023-04-24T14:53:03;11.30;1.00
8527;DHT22;4301;48.362;8.478;2023-04-24T14:55:30;11.10;1.00
8527;DHT22;4301;48.362;8.478;2023-04-24T14:57:58;11.20;1.00
8527;DHT22;4301;48.362;8.478;2023-04-24T15:00:25;11.20;1.00
8527;DHT22;4301;48.362;8.478;2023-04-24T15:02:52;11.20;1.00
8527;DHT22;4301;48.362;8.478;2023-04-24T15:05:20;11.30;1.00
8527;DHT22;4301;48.362;8.478;2023-04-24T15:07:48;11.00;1.00
8527;DHT22;4301;48.362;8.478;2023-04-24T15:10:16;10.90;1.00
8527;DHT22;4301;48.362;8.478;2023-04-24T15:12:44;11.00;1.00
8527;DHT22;4301;48.362;8.478;2023-04-24T15:15:11;11.20;1.00
8527;DHT22;4301;48.362;8.478;2023-04-24T15:17:38;11.80;1.00
8527;DHT22;4301;48.362;8.478;2023-04-24T15:20:06;12.30;99.90
8527;DHT22;4301;48.362;8.478;2023-04-24T15:22:33;12.50;99.90
8527;DHT22;4301;48.362;8.478;2023-04-24T15:25:00;12.90;99.90
8527;DHT22;4301;48.362;8.478;2023-04-24T15:27:39;12.50;99.90
8527;DHT22;4301;48.362;8.478;2023-04-24T15:30:07;12.30;99.90
8527;DHT22;4301;48.362;8.478;2023-04-24T15:32:34;12.20;99.90
8527;DHT22;4301;48.362;8.478;2023-04-24T15:35:02;11.90;99.90
8527;DHT22;4301;48.362;8.478;2023-04-24T15:37:29;11.80;99.90
8527;DHT22;4301;48.362;8.478;2023-04-24T15:39:56;11.90;99.90
8527;DHT22;4301;48.362;8.478;2023-04-24T15:42:22;12.10;99.90
8527;DHT22;4301;48.362;8.478;2023-04-24T15:44:51;12.10;99.90
8527;DHT22;4301;48.362;8.478;2023-04-24T15:47:19;11.80;99.90
8527;DHT22;4301;48.362;8.478;2023-04-24T15:49:46;11.80;99.90
8527;DHT22;4301;48.362;8.478;2023-04-24T15:52:13;11.60;99.90
8527;DHT22;4301;48.362;8.478;2023-04-24T15:54:40;11.40;99.90
8527;DHT22;4301;48.362;8.478;2023-04-24T15:57:07;11.30;99.90
8527;DHT22;4301;48.362;8.478;2023-04-24T15:59:34;11.40;99.90
8527;DHT22;4301;48.362;8.478;2023-04-24T16:02:03;11.20;99.90
8527;DHT22;4301;48.362;8.478;2023-04-24T16:04:30;11.10;99.90
8527;DHT22;4301;48.362;8.478;2023-04-24T16:07:00;11.00;99.90
8527;DHT22;4301;48.362;8.478;2023-04-24T16:09:27;11.10;1.00
8527;DHT22;4301;48.362;8.478;2023-04-24T16:11:55;10.90;1.00
8527;DHT22;4301;48.362;8.478;2023-04-24T16:14:23;10.90;1.00
8527;DHT22;4301;48.362;8.478;2023-04-24T16:16:50;11.00;1.00
8527;DHT22;4301;48.362;8.478;2023-04-24T16:19:18;11.10;1.00
8527;DHT22;4301;48.362;8.478;2023-04-24T16:21:45;11.10;1.00
8527;DHT22;4301;48.362;8.478;2023-04-24T16:24:12;11.20;1.00